Time;durP1;ratioP1;P1;durP2;ratioP2;P2;SDS_P1;SDS_P2;PMS_P1;PMS_P2;Temp;Humidity;BMP_temperature;BMP_pressure;BME280_temperature;BME280_humidity;BME280_pressure;Samples;Min_cycle;Max_cycle;Signal;HPM_P1;HPM_P2
2021/01/03 00:01:21;;;;;;;0.73;0.70;;;1.90;94.50;;;;;;4148422;28;20065;-85
2021/01/03 00:03:22;;;;;;;1.30;0.47;;;1.90;94.50;;;;;;4148085;28;20054;-86
2021/01/03 00:05:25;;;;;;;0.80;0.80;;;1.90;94.70;;;;;;4160963;28;20068;-85
2021/01/03 00:07:27;;;;;;;1.35;1.20;;;1.90;94.70;;;;;;4147427;28;20061;-86
2021/01/03 00:09:28;;;;;;;0.80;0.80;;;1.90;94.60;;;;;;4165225;28;20053;-86
2021/01/03 00:11:29;;;;;;;1.63;1.48;;;1.90;94.60;;;;;;4164265;28;20041;-85
2021/01/03 00:13:30;;;;;;;0.30;0.25;;;1.90;94.80;;;;;;4171402;28;20063;-86
2021/01/03 00:15:32;;;;;;;1.95;1.15;;;1.90;94.70;;;;;;4148389;28;20133;-86
2021/01/03 00:17:33;;;;;;;0.40;0.40;;;1.80;94.70;;;;;;4165057;28;20046;-86
2021/01/03 00:19:34;;;;;;;1.25;1.15;;;1.80;94.80;;;;;;4168981;28;20041;-86
2021/01/03 00:21:35;;;;;;;0.57;0.57;;;1.80;95.00;;;;;;4181684;28;20460;-86
2021/01/03 00:23:37;;;;;;;0.77;0.45;;;1.80;94.90;;;;;;4163933;28;20055;-85
2021/01/03 00:25:39;;;;;;;1.52;1.15;;;1.80;94.90;;;;;;4146726;28;20056;-86
2021/01/03 00:27:40;;;;;;;0.30;0.30;;;1.80;95.10;;;;;;4148174;28;20054;-86
2021/01/03 00:29:41;;;;;;;0.50;0.50;;;1.80;94.90;;;;;;4185107;28;20053;-86
2021/01/03 00:31:43;;;;;;;2.00;1.65;;;1.80;95.10;;;;;;4168977;28;20451;-86
2021/01/03 00:33:45;;;;;;;2.13;1.25;;;1.80;95.10;;;;;;4180169;28;20061;-86
2021/01/03 00:35:46;;;;;;;0.40;0.32;;;1.80;95.30;;;;;;4148134;28;20133;-85
2021/01/03 00:37:47;;;;;;;0.40;0.40;;;1.80;95.30;;;;;;4163700;28;20556;-86
2021/01/03 00:39:49;;;;;;;1.05;1.05;;;1.80;95.20;;;;;;4148772;28;20057;-86
2021/01/03 00:41:51;;;;;;;1.13;1.00;;;1.90;95.20;;;;;;4176037;28;20057;-87
2021/01/03 00:44:06;;;;;;;0.20;0.20;;;1.90;95.20;;;;;;4152752;28;20101;-87
2021/01/03 00:46:08;;;;;;;1.58;1.45;;;1.90;95.30;;;;;;4181399;28;20144;-86
2021/01/03 00:48:10;;;;;;;0.32;0.32;;;1.90;95.50;;;;;;4137110;28;20529;-86
2021/01/03 00:50:12;;;;;;;0.35;0.35;;;1.90;95.30;;;;;;4147772;28;20536;-86
2021/01/03 00:52:13;;;;;;;0.47;0.47;;;1.80;95.40;;;;;;4170194;28;20049;-86
2021/01/03 00:54:14;;;;;;;1.08;1.00;;;1.80;95.50;;;;;;4164829;28;20513;-87
2021/01/03 00:56:15;;;;;;;1.55;0.68;;;1.80;95.40;;;;;;4145576;28;20471;-87
2021/01/03 00:58:17;;;;;;;1.08;0.93;;;1.80;95.60;;;;;;4181805;28;20079;-87
2021/01/03 01:00:21;;;;;;;0.73;0.73;;;1.80;95.60;;;;;;4196254;28;20423;-87
2021/01/03 01:02:23;;;;;;;;;;;1.90;95.70;;;;;;4164417;28;20065;-85
2021/01/03 01:04:25;;;;;;;0.57;0.57;;;1.80;95.80;;;;;;4191308;28;20025;-87
2021/01/03 01:06:27;;;;;;;0.73;0.45;;;1.80;95.80;;;;;;4163628;28;20049;-85
2021/01/03 01:08:28;;;;;;;1.00;0.98;;;1.70;95.80;;;;;;4173824;28;20064;-84
2021/01/03 01:10:30;;;;;;;0.75;0.70;;;1.70;96.00;;;;;;4147627;28;20061;-85
2021/01/03 01:12:34;;;;;;;1.02;0.98;;;1.70;96.00;;;;;;4148191;28;20084;-85
2021/01/03 01:14:35;;;;;;;0.70;0.70;;;1.70;96.10;;;;;;4176030;28;20087;-90
2021/01/03 01:16:37;;;;;;;0.73;0.73;;;1.70;96.20;;;;;;4163297;28;20045;-85
2021/01/03 01:18:39;;;;;;;0.60;0.60;;;1.70;96.30;;;;;;4147436;28;20140;-85
2021/01/03 01:20:40;;;;;;;0.60;0.57;;;1.70;96.30;;;;;;4157360;28;20052;-85
2021/01/03 01:22:43;;;;;;;1.67;1.58;;;1.70;96.40;;;;;;4151326;28;20421;-85
2021/01/03 01:24:44;;;;;;;1.02;1.02;;;1.70;96.50;;;;;;4147373;28;20050;-85
2021/01/03 01:26:46;;;;;;;0.40;0.40;;;1.60;96.70;;;;;;4145970;28;20054;-85
2021/01/03 01:28:47;;;;;;;0.40;0.40;;;1.70;96.80;;;;;;4141015;28;20050;-87
2021/01/03 01:30:48;;;;;;;2.85;1.23;;;1.60;96.70;;;;;;4147401;28;20054;-85
2021/01/03 01:32:50;;;;;;;0.75;0.75;;;1.60;96.70;;;;;;4145892;28;20046;-85
2021/01/03 01:34:51;;;;;;;4.75;1.95;;;1.60;96.70;;;;;;4177389;28;20071;-85
2021/01/03 01:36:52;;;;;;;0.40;0.40;;;1.60;96.70;;;;;;4176964;28;20050;-85
2021/01/03 01:38:54;;;;;;;0.80;0.80;;;1.70;96.80;;;;;;4189865;28;20057;-87
2021/01/03 01:40:57;;;;;;;1.95;0.88;;;1.70;96.80;;;;;;4146623;28;20084;-85
2021/01/03 01:42:58;;;;;;;1.10;1.00;;;1.70;96.90;;;;;;4147639;28;20601;-85
2021/01/03 01:45:00;;;;;;;1.75;1.13;;;1.60;97.00;;;;;;4143239;28;20438;-85
2021/01/03 01:47:05;;;;;;;0.98;0.93;;;1.70;97.10;;;;;;4166230;28;20516;-85
2021/01/03 01:49:08;;;;;;;;;;;1.60;97.10;;;;;;4179970;28;20037;-85
2021/01/03 01:51:23;;;;;;;0.45;0.45;;;1.60;97.40;;;;;;4163585;28;19921;-85
2021/01/03 01:54:20;;;;;;;0.65;0.65;;;1.70;97.50;;;;;;4177258;28;20040;-85
2021/01/03 01:56:34;;;;;;;1.08;0.85;;;1.60;97.50;;;;;;4127123;28;20157;-85
2021/01/03 01:58:51;;;;;;;0.57;0.57;;;1.60;97.60;;;;;;4121142;28;20145;-88
2021/01/03 02:00:56;;;;;;;0.65;0.65;;;1.60;97.50;;;;;;4118097;28;20050;-85
2021/01/03 02:03:11;;;;;;;1.77;0.80;;;1.60;97.60;;;;;;4120855;28;20069;-85
2021/01/03 02:05:54;;;;;;;0.63;0.63;;;1.60;97.60;;;;;;4095574;28;20122;-85
2021/01/03 02:08:05;;;;;;;3.70;0.90;;;1.60;97.60;;;;;;4065728;29;20048;-86
2021/01/03 02:10:33;;;;;;;0.50;0.50;;;1.60;97.60;;;;;;4051445;29;20049;-85
2021/01/03 02:12:37;;;;;;;1.10;0.98;;;1.60;97.60;;;;;;4052014;29;20060;-86
2021/01/03 02:14:40;;;;;;;1.13;0.95;;;1.60;97.60;;;;;;4062196;29;20576;-86
2021/01/03 02:16:41;;;;;;;0.80;0.80;;;1.60;97.70;;;;;;4050195;29;20052;-85
2021/01/03 02:18:43;;;;;;;0.40;0.40;;;1.60;97.90;;;;;;4037890;29;20053;-84
2021/01/03 02:21:12;;;;;;;4.13;1.15;;;1.60;97.70;;;;;;4064968;29;20060;-85
2021/01/03 02:23:14;;;;;;;0.20;0.20;;;1.60;97.70;;;;;;4063531;29;20541;-85
2021/01/03 02:25:15;;;;;;;0.80;0.65;;;1.60;97.70;;;;;;4056912;29;20518;-85
2021/01/03 02:27:31;;;;;;;1.45;1.35;;;1.60;97.80;;;;;;4063433;29;20158;-86
2021/01/03 02:29:32;;;;;;;0.80;0.80;;;1.60;97.70;;;;;;4081609;29;20056;-86
2021/01/03 02:31:36;;;;;;;0.80;0.80;;;1.60;97.80;;;;;;4113067;28;20133;-84
2021/01/03 02:33:43;;;;;;;2.03;1.27;;;1.60;97.70;;;;;;4098150;28;20058;-85
2021/01/03 02:35:45;;;;;;;0.20;0.20;;;1.60;97.80;;;;;;4126008;28;20522;-85
2021/01/03 02:37:48;;;;;;;0.70;0.57;;;1.60;97.70;;;;;;4097616;28;20174;-85
2021/01/03 02:39:56;;;;;;;1.23;1.13;;;1.60;97.80;;;;;;4141718;28;20062;-85
2021/01/03 02:41:59;;;;;;;2.10;0.50;;;1.60;97.80;;;;;;4168775;28;20063;-86
2021/01/03 02:44:01;;;;;;;0.60;0.60;;;1.70;97.70;;;;;;4185624;28;20053;-87
2021/01/03 02:46:02;;;;;;;1.52;1.20;;;1.60;98.10;;;;;;4167608;28;20045;-85
2021/01/03 02:48:17;;;;;;;0.75;0.75;;;1.60;98.00;;;;;;4159670;28;20516;-85
2021/01/03 02:50:23;;;;;;;2.58;1.08;;;1.60;98.00;;;;;;4145825;28;20431;-85
2021/01/03 02:52:35;;;;;;;1.00;0.90;;;1.60;97.90;;;;;;4162727;28;20050;-85
2021/01/03 02:54:36;;;;;;;0.85;0.77;;;1.60;97.90;;;;;;4171264;28;20056;-87
2021/01/03 02:56:38;;;;;;;0.68;0.68;;;1.60;98.00;;;;;;4162986;28;20494;-85
2021/01/03 02:58:39;;;;;;;0.50;0.50;;;1.70;98.00;;;;;;4158886;28;20135;-85
2021/01/03 03:00:41;;;;;;;0.98;0.98;;;1.60;98.00;;;;;;4178853;28;20131;-85
2021/01/03 03:02:42;;;;;;;0.30;0.30;;;1.60;97.90;;;;;;4173955;28;20049;-85
2021/01/03 03:04:44;;;;;;;0.52;0.52;;;1.60;97.90;;;;;;4177869;28;20049;-85
2021/01/03 03:06:45;;;;;;;1.42;1.40;;;1.60;98.00;;;;;;4167236;28;20116;-88
2021/01/03 03:08:46;;;;;;;0.80;0.80;;;1.60;97.90;;;;;;4145369;28;20417;-85
2021/01/03 03:10:48;;;;;;;0.50;0.35;;;1.60;98.00;;;;;;4141268;28;20054;-87
2021/01/03 03:12:50;;;;;;;0.95;0.95;;;1.60;98.10;;;;;;4180776;28;20096;-85
2021/01/03 03:14:51;;;;;;;0.68;0.68;;;1.60;98.10;;;;;;4176828;28;20061;-85
2021/01/03 03:16:58;;;;;;;2.25;1.25;;;1.60;98.00;;;;;;4165027;28;20052;-85
2021/01/03 03:19:00;;;;;;;1.15;1.05;;;1.60;97.90;;;;;;4138280;28;20123;-86
2021/01/03 03:21:02;;;;;;;0.50;0.50;;;1.60;97.80;;;;;;4166333;28;20059;-86
2021/01/03 03:23:03;;;;;;;0.50;0.50;;;1.60;97.90;;;;;;4175089;28;20497;-85
2021/01/03 03:25:06;;;;;;;0.65;0.65;;;1.70;98.00;;;;;;4170510;28;20068;-85
2021/01/03 03:27:07;;;;;;;1.02;1.02;;;1.70;98.20;;;;;;4168261;28;20056;-85
2021/01/03 03:29:08;;;;;;;2.20;0.60;;;1.70;98.30;;;;;;4182534;28;20051;-85
2021/01/03 03:31:10;;;;;;;0.50;0.40;;;1.70;98.10;;;;;;4146097;28;20097;-84
2021/01/03 03:33:11;;;;;;;0.85;0.40;;;1.60;98.30;;;;;;4147063;28;20521;-85
2021/01/03 03:35:12;;;;;;;0.30;0.30;;;1.70;98.40;;;;;;4167829;28;20132;-85
2021/01/03 03:37:14;;;;;;;0.38;0.38;;;1.70;98.40;;;;;;4150495;28;20114;-84
2021/01/03 03:39:15;;;;;;;1.00;0.68;;;1.70;98.30;;;;;;4150091;28;20516;-86
2021/01/03 03:41:24;;;;;;;0.80;0.80;;;1.60;98.50;;;;;;4147522;28;20045;-86
2021/01/03 03:43:25;;;;;;;0.43;0.43;;;1.60;98.70;;;;;;4160815;28;20108;-84
2021/01/03 03:45:26;;;;;;;0.95;0.80;;;1.60;98.60;;;;;;4182384;28;20052;-85
2021/01/03 03:47:28;;;;;;;0.55;0.55;;;1.50;98.70;;;;;;4148767;28;20054;-85
2021/01/03 03:49:30;;;;;;;0.45;0.45;;;1.50;98.70;;;;;;4148822;28;20046;-86
2021/01/03 03:51:31;;;;;;;3.50;0.73;;;1.50;99.00;;;;;;4133342;28;20152;-85
2021/01/03 03:53:33;;;;;;;1.25;1.15;;;1.50;99.00;;;;;;4165258;28;20136;-86
2021/01/03 03:55:34;;;;;;;0.98;0.98;;;1.40;99.30;;;;;;4148981;28;20049;-87
2021/01/03 03:57:35;;;;;;;0.47;0.47;;;1.50;99.60;;;;;;4186970;28;20060;-86
2021/01/03 03:59:38;;;;;;;0.40;0.40;;;1.50;99.50;;;;;;4169426;28;20169;-85
2021/01/03 04:01:39;;;;;;;0.68;0.68;;;1.50;99.50;;;;;;4184877;28;20084;-85
2021/01/03 04:03:40;;;;;;;8.93;2.38;;;1.50;99.90;;;;;;4148488;28;20061;-85
2021/01/03 04:05:45;;;;;;;0.32;0.32;;;1.50;99.90;;;;;;4181422;28;20049;-85
2021/01/03 04:07:46;;;;;;;2.77;2.57;;;1.50;99.90;;;;;;4171972;28;20045;-86
2021/01/03 04:09:47;;;;;;;0.38;0.35;;;1.40;99.90;;;;;;4164868;28;20399;-85
2021/01/03 04:11:50;;;;;;;0.70;0.65;;;1.50;99.90;;;;;;4148588;28;20054;-85
2021/01/03 04:13:51;;;;;;;3.83;1.40;;;1.40;99.90;;;;;;4171774;28;20529;-86
2021/01/03 04:15:52;;;;;;;0.50;0.50;;;1.40;99.90;;;;;;4166459;28;20080;-85
2021/01/03 04:17:53;;;;;;;0.90;0.85;;;1.40;99.90;;;;;;4149112;28;20602;-85
2021/01/03 04:19:55;;;;;;;0.73;0.73;;;1.30;99.90;;;;;;4146908;28;20042;-86
2021/01/03 04:22:03;;;;;;;0.70;0.70;;;1.40;99.90;;;;;;4179171;28;20850;-86
2021/01/03 04:24:06;;;;;;;0.70;0.70;;;1.40;99.90;;;;;;4165029;28;20061;-85
2021/01/03 04:26:20;;;;;;;1.50;0.95;;;1.30;99.90;;;;;;4192987;28;20052;-85
2021/01/03 04:28:22;;;;;;;0.45;0.45;;;1.40;99.90;;;;;;4178091;28;20633;-86
2021/01/03 04:30:24;;;;;;;0.82;0.82;;;1.40;99.90;;;;;;4148944;28;20542;-85
2021/01/03 04:32:25;;;;;;;0.52;0.43;;;1.30;99.90;;;;;;4144816;28;20080;-85
2021/01/03 04:34:27;;;;;;;0.63;0.63;;;1.40;99.90;;;;;;4160736;28;20538;-86
2021/01/03 04:36:28;;;;;;;2.03;1.27;;;1.40;99.90;;;;;;4164391;28;20137;-85
2021/01/03 04:38:29;;;;;;;0.60;0.60;;;1.30;99.90;;;;;;4147780;28;20572;-85
2021/01/03 04:40:31;;;;;;;1.58;1.33;;;1.40;99.90;;;;;;4145188;28;20061;-85
2021/01/03 04:42:33;;;;;;;0.55;0.55;;;1.30;99.90;;;;;;4132251;28;20145;-86
2021/01/03 04:44:38;;;;;;;1.15;1.05;;;1.30;99.90;;;;;;4148376;28;20073;-86
2021/01/03 04:46:40;;;;;;;0.75;0.75;;;1.30;99.90;;;;;;4161661;28;20054;-84
2021/01/03 04:48:42;;;;;;;0.70;0.70;;;1.30;99.90;;;;;;4165065;28;20049;-84
2021/01/03 04:50:49;;;;;;;0.75;0.75;;;1.30;99.90;;;;;;4191023;28;20052;-84
2021/01/03 04:53:11;;;;;;;0.90;0.50;;;1.30;99.90;;;;;;4161916;28;20524;-85
2021/01/03 04:55:22;;;;;;;0.43;0.43;;;1.30;99.90;;;;;;4170226;28;20048;-86
2021/01/03 04:57:39;;;;;;;1.45;0.98;;;1.30;99.90;;;;;;4181211;28;20053;-85
2021/01/03 04:59:42;;;;;;;0.80;0.68;;;1.30;99.90;;;;;;4148799;28;20136;-85
2021/01/03 05:02:02;;;;;;;0.77;0.77;;;1.30;99.90;;;;;;4162942;28;20080;-85
2021/01/03 05:04:27;;;;;;;2.13;1.25;;;1.30;99.90;;;;;;4179274;28;20041;-84
2021/01/03 05:06:29;;;;;;;1.05;1.00;;;1.30;99.90;;;;;;4185160;28;20400;-86
2021/01/03 05:08:48;;;;;;;0.93;0.93;;;1.20;99.90;;;;;;4179226;28;20057;-84
2021/01/03 05:10:50;;;;;;;0.43;0.43;;;1.20;99.90;;;;;;4178172;28;20052;-86
2021/01/03 05:13:13;;;;;;;1.25;1.15;;;1.20;99.90;;;;;;4181955;28;20427;-85
2021/01/03 05:15:22;;;;;;;0.55;0.55;;;1.30;99.90;;;;;;4166297;28;20049;-86
2021/01/03 05:17:23;;;;;;;3.60;2.28;;;1.30;99.90;;;;;;4167060;28;20054;-85
2021/01/03 05:19:25;;;;;;;1.42;1.33;;;1.30;99.90;;;;;;4174061;28;20440;-85
2021/01/03 05:21:47;;;;;;;2.40;1.90;;;1.30;99.90;;;;;;4147646;28;20058;-86
2021/01/03 05:24:00;;;;;;;1.05;0.95;;;1.30;99.90;;;;;;4188494;28;20048;-86
2021/01/03 05:26:05;;;;;;;0.60;0.60;;;1.30;99.90;;;;;;4184121;28;20127;-85
2021/01/03 05:28:10;;;;;;;1.92;1.35;;;1.30;99.90;;;;;;4144128;28;20054;-85
2021/01/03 05:30:22;;;;;;;2.38;1.17;;;1.30;99.90;;;;;;4176778;28;20595;-87
2021/01/03 05:32:32;;;;;;;0.57;0.57;;;1.30;99.90;;;;;;4147768;28;20058;-86
2021/01/03 05:34:41;;;;;;;1.08;1.00;;;1.30;99.90;;;;;;4151445;28;20136;-85
2021/01/03 05:36:47;;;;;;;0.40;0.40;;;1.30;99.90;;;;;;4177064;28;20049;-85
2021/01/03 05:38:48;;;;;;;2.85;0.50;;;1.30;99.90;;;;;;4163084;28;20049;-85
2021/01/03 05:40:49;;;;;;;3.80;1.95;;;1.30;99.90;;;;;;4164155;28;20587;-85
2021/01/03 05:43:03;;;;;;;2.33;1.00;;;1.40;99.90;;;;;;4177923;28;20512;-84
2021/01/03 05:45:09;;;;;;;1.10;1.00;;;1.40;99.90;;;;;;4147776;28;20053;-85
2021/01/03 05:47:17;;;;;;;1.20;1.10;;;1.40;99.90;;;;;;4171243;28;20049;-84
2021/01/03 05:49:23;;;;;;;1.65;1.55;;;1.40;99.90;;;;;;4182065;28;21954;-84
2021/01/03 05:51:30;;;;;;;0.50;0.50;;;1.30;99.90;;;;;;4146682;28;20058;-84
2021/01/03 05:53:32;;;;;;;0.55;0.47;;;1.30;99.90;;;;;;4184693;28;20052;-88
2021/01/03 05:55:33;;;;;;;2.53;1.25;;;1.30;99.90;;;;;;4157669;28;20128;-85
2021/01/03 05:57:35;;;;;;;0.95;0.90;;;1.30;99.90;;;;;;4162544;28;20445;-86
2021/01/03 05:59:38;;;;;;;2.70;2.22;;;1.20;99.90;;;;;;4146492;28;20561;-85
2021/01/03 06:01:40;;;;;;;1.23;1.17;;;1.30;99.90;;;;;;4146517;28;20098;-85
2021/01/03 06:03:41;;;;;;;3.10;0.93;;;1.30;99.90;;;;;;4192171;28;20083;-85
2021/01/03 06:05:48;;;;;;;1.02;0.85;;;1.30;99.90;;;;;;4177069;28;20148;-86
2021/01/03 06:08:01;;;;;;;1.02;1.02;;;1.30;99.90;;;;;;4187491;28;20513;-85
2021/01/03 06:10:22;;;;;;;0.57;0.57;;;1.30;99.90;;;;;;4193124;28;20056;-86
2021/01/03 06:12:29;;;;;;;0.82;0.80;;;1.20;99.90;;;;;;4175301;28;20053;-85
2021/01/03 06:14:30;;;;;;;0.57;0.57;;;1.20;99.90;;;;;;4150384;28;20079;-85
2021/01/03 06:16:33;;;;;;;0.35;0.35;;;1.30;99.90;;;;;;4146112;28;20105;-86
2021/01/03 06:18:48;;;;;;;1.17;0.70;;;1.30;99.90;;;;;;4145891;28;20049;-86
2021/01/03 06:20:50;;;;;;;0.63;0.63;;;1.20;99.90;;;;;;4171980;28;20124;-86
2021/01/03 06:22:58;;;;;;;4.25;1.23;;;1.20;99.90;;;;;;4165804;28;20065;-85
2021/01/03 06:24:59;;;;;;;0.93;0.93;;;1.20;99.90;;;;;;4138405;28;20125;-85
2021/01/03 06:27:02;;;;;;;2.05;1.92;;;1.20;99.90;;;;;;4150311;28;20133;-86
2021/01/03 06:29:09;;;;;;;1.05;1.05;;;1.10;99.90;;;;;;4149020;28;20546;-86
2021/01/03 06:31:44;;;;;;;0.68;0.68;;;1.20;99.90;;;;;;4175133;28;20135;-85
2021/01/03 06:33:58;;;;;;;1.30;0.80;;;1.20;99.90;;;;;;4188856;28;20519;-85
2021/01/03 06:36:06;;;;;;;1.08;1.05;;;1.20;99.90;;;;;;4188765;28;20148;-85
2021/01/03 06:38:26;;;;;;;1.27;1.17;;;1.20;99.90;;;;;;4171083;28;20136;-84
2021/01/03 06:40:35;;;;;;;3.90;1.50;;;1.20;99.90;;;;;;4158519;28;20049;-84
2021/01/03 06:43:04;;;;;;;0.80;0.80;;;1.20;99.90;;;;;;4147108;28;20046;-85
2021/01/03 06:45:46;;;;;;;2.67;1.35;;;1.20;99.90;;;;;;4159088;28;20047;-83
2021/01/03 06:47:53;;;;;;;0.50;0.50;;;1.10;99.90;;;;;;4130137;28;20061;-86
2021/01/03 06:50:17;;;;;;;0.60;0.60;;;1.20;99.90;;;;;;4138054;28;20125;-85
2021/01/03 06:52:33;;;;;;;0.82;0.82;;;1.20;99.90;;;;;;4127828;28;20058;-85
2021/01/03 06:54:45;;;;;;;0.40;0.40;;;1.20;99.90;;;;;;4118494;28;20058;-86
2021/01/03 06:56:50;;;;;;;0.20;0.20;;;1.10;99.90;;;;;;4109941;28;20053;-88
2021/01/03 06:59:02;;;;;;;0.60;0.60;;;1.10;99.90;;;;;;4129022;28;20069;-86
2021/01/03 07:01:32;;;;;;;0.30;0.30;;;1.10;99.90;;;;;;4141146;28;20141;-84
2021/01/03 07:03:33;;;;;;;2.75;1.27;;;1.20;99.90;;;;;;4122520;28;20108;-86
2021/01/03 07:05:35;;;;;;;0.70;0.70;;;1.20;99.90;;;;;;4126943;28;20439;-85
2021/01/03 07:07:37;;;;;;;0.90;0.75;;;1.20;99.90;;;;;;4160011;28;20124;-85
2021/01/03 07:09:59;;;;;;;1.05;1.05;;;1.20;99.90;;;;;;4121356;28;20061;-85
2021/01/03 07:12:01;;;;;;;3.05;1.63;;;1.20;99.90;;;;;;4116665;28;20133;-86
2021/01/03 07:14:04;;;;;;;1.35;1.25;;;1.20;99.90;;;;;;4102803;28;20047;-85
2021/01/03 07:16:08;;;;;;;0.68;0.68;;;1.20;99.90;;;;;;4121458;28;20178;-85
2021/01/03 07:18:34;;;;;;;2.17;1.17;;;1.20;99.90;;;;;;4114201;28;20055;-84
2021/01/03 07:20:55;;;;;;;0.60;0.60;;;1.20;99.90;;;;;;4124265;28;20051;-85
2021/01/03 07:23:13;;;;;;;3.03;1.17;;;1.20;99.90;;;;;;4111818;28;20142;-85
2021/01/03 07:25:20;;;;;;;0.93;0.85;;;1.20;99.90;;;;;;4132394;28;20050;-86
2021/01/03 07:27:43;;;;;;;1.52;1.42;;;1.20;99.90;;;;;;4148478;28;20057;-84
2021/01/03 07:29:56;;;;;;;0.47;0.47;;;1.20;99.90;;;;;;4177565;28;20059;-84
2021/01/03 07:32:04;;;;;;;0.47;0.47;;;1.20;99.90;;;;;;4178530;28;20047;-84
2021/01/03 07:34:20;;;;;;;1.55;1.45;;;1.20;99.90;;;;;;4164643;28;20083;-86
2021/01/03 07:36:36;;;;;;;0.93;0.90;;;1.20;99.90;;;;;;4166668;28;20543;-84
2021/01/03 07:38:38;;;;;;;0.88;0.85;;;1.30;99.90;;;;;;4164444;28;20049;-85
2021/01/03 07:41:08;;;;;;;1.30;1.20;;;1.30;99.90;;;;;;4164234;28;20057;-86
2021/01/03 07:43:09;;;;;;;1.33;0.70;;;1.30;99.90;;;;;;4182437;28;20049;-89
2021/01/03 07:45:13;;;;;;;0.55;0.50;;;1.30;99.90;;;;;;4199418;28;20079;-86
2021/01/03 07:47:36;;;;;;;1.38;0.85;;;1.30;99.90;;;;;;4197936;28;20044;-86
2021/01/03 07:49:43;;;;;;;1.75;0.65;;;1.30;99.90;;;;;;4178287;28;20132;-86
2021/01/03 07:51:44;;;;;;;0.40;0.40;;;1.20;99.90;;;;;;4180138;28;20047;-83
2021/01/03 07:53:45;;;;;;;2.45;1.00;;;1.20;99.90;;;;;;4184383;28;20071;-80
2021/01/03 07:55:46;;;;;;;0.65;0.52;;;1.30;99.90;;;;;;4172796;28;20105;-84
2021/01/03 07:57:55;;;;;;;0.63;0.63;;;1.30;99.90;;;;;;4191134;28;20143;-86
2021/01/03 07:59:58;;;;;;;0.75;0.75;;;1.30;99.90;;;;;;4181501;28;20053;-85
2021/01/03 08:01:59;;;;;;;0.50;0.32;;;1.30;99.90;;;;;;4163114;28;20046;-85
2021/01/03 08:04:30;;;;;;;0.45;0.45;;;1.30;99.90;;;;;;4180554;28;20421;-85
2021/01/03 08:06:32;;;;;;;1.92;1.83;;;1.30;99.90;;;;;;4153182;28;20099;-86
2021/01/03 08:08:33;;;;;;;1.08;0.93;;;1.40;99.90;;;;;;4178770;28;20525;-85
2021/01/03 08:10:35;;;;;;;3.42;1.33;;;1.40;99.90;;;;;;4197108;28;20135;-84
2021/01/03 08:12:40;;;;;;;0.68;0.68;;;1.40;99.90;;;;;;4198286;28;20056;-84
2021/01/03 08:14:41;;;;;;;2.70;1.88;;;1.30;99.90;;;;;;4188297;28;20049;-83
2021/01/03 08:16:42;;;;;;;0.65;0.65;;;1.40;99.90;;;;;;4160996;28;20052;-86
2021/01/03 08:19:05;;;;;;;1.15;0.88;;;1.40;99.90;;;;;;4179065;28;20059;-84
2021/01/03 08:21:15;;;;;;;3.08;2.20;;;1.30;99.90;;;;;;4182171;28;20472;-86
2021/01/03 08:23:28;;;;;;;0.50;0.50;;;1.30;99.90;;;;;;4148062;28;20050;-84
2021/01/03 08:25:29;;;;;;;0.55;0.55;;;1.30;99.90;;;;;;4183219;28;20060;-85
2021/01/03 08:27:42;;;;;;;1.77;1.60;;;1.30;99.90;;;;;;4181225;28;20053;-84
2021/01/03 08:29:47;;;;;;;1.25;1.15;;;1.30;99.90;;;;;;4166473;28;20059;-85
2021/01/03 08:31:50;;;;;;;;;;;1.30;99.90;;;;;;4172695;28;20049;-86
2021/01/03 08:33:51;;;;;;;0.65;0.60;;;1.30;99.90;;;;;;4188065;28;19928;-85
2021/01/03 08:35:53;;;;;;;1.52;1.42;;;1.30;99.90;;;;;;4163808;28;20065;-84
2021/01/03 08:37:55;;;;;;;1.08;1.08;;;1.30;99.90;;;;;;4203832;28;20044;-83
2021/01/03 08:39:56;;;;;;;1.02;1.00;;;1.30;99.90;;;;;;4193531;28;20048;-83
2021/01/03 08:42:03;;;;;;;0.55;0.55;;;1.30;99.90;;;;;;4180738;28;20124;-83
2021/01/03 08:44:04;;;;;;;1.20;1.02;;;1.30;99.90;;;;;;4162003;28;20125;-84
2021/01/03 08:46:06;;;;;;;0.20;0.20;;;1.30;99.90;;;;;;4189832;28;20044;-83
2021/01/03 08:48:10;;;;;;;0.60;0.60;;;1.30;99.90;;;;;;4181090;28;20108;-82
2021/01/03 08:50:18;;;;;;;1.20;1.20;;;1.30;99.90;;;;;;4178070;28;20045;-85
2021/01/03 08:52:22;;;;;;;3.72;1.73;;;1.30;99.90;;;;;;4194495;28;20055;-84
2021/01/03 08:54:23;;;;;;;1.00;0.88;;;1.30;99.90;;;;;;4173112;28;20124;-84
2021/01/03 08:56:28;;;;;;;1.27;1.27;;;1.30;99.90;;;;;;4178256;28;20088;-82
2021/01/03 08:58:39;;;;;;;1.42;1.23;;;1.40;99.90;;;;;;4161158;28;20513;-79
2021/01/03 09:00:42;;;;;;;1.02;1.02;;;1.30;99.90;;;;;;4190043;28;20055;-83
2021/01/03 09:02:43;;;;;;;2.15;0.85;;;1.30;99.90;;;;;;4184450;28;20057;-84
2021/01/03 09:04:44;;;;;;;1.08;1.08;;;1.30;99.90;;;;;;4172690;28;20564;-84
2021/01/03 09:06:57;;;;;;;1.33;1.23;;;1.30;99.90;;;;;;4187350;28;20046;-83
2021/01/03 09:09:14;;;;;;;1.13;1.02;;;1.30;99.90;;;;;;4162277;28;20327;-83
2021/01/03 09:11:19;;;;;;;3.45;1.17;;;1.30;99.90;;;;;;4174780;28;20046;-81
2021/01/03 09:13:23;;;;;;;3.67;1.77;;;1.30;99.90;;;;;;4173474;28;20048;-83
2021/01/03 09:15:24;;;;;;;1.95;0.88;;;1.30;99.90;;;;;;4172062;28;20053;-85
2021/01/03 09:17:29;;;;;;;0.77;0.77;;;1.30;99.90;;;;;;4189522;28;20048;-84
2021/01/03 09:19:31;;;;;;;;;;;1.30;99.90;;;;;;4191217;28;20060;-85
2021/01/03 09:21:32;;;;;;;1.08;1.08;;;1.30;99.90;;;;;;4190787;28;19947;-84
2021/01/03 09:23:36;;;;;;;0.60;0.60;;;1.30;99.90;;;;;;4176724;28;20057;-84
2021/01/03 09:25:38;;;;;;;1.17;1.00;;;1.30;99.90;;;;;;4167350;28;20061;-85
2021/01/03 09:27:39;;;;;;;1.42;0.80;;;1.30;99.90;;;;;;4172679;28;20053;-84
2021/01/03 09:29:40;;;;;;;2.20;1.60;;;1.30;99.90;;;;;;4146642;28;20046;-84
2021/01/03 09:32:07;;;;;;;1.25;1.15;;;1.30;99.90;;;;;;4191723;28;20052;-84
2021/01/03 09:34:12;;;;;;;;;;;1.30;99.90;;;;;;4178310;28;20040;-83
2021/01/03 09:36:27;;;;;;;2.53;0.73;;;1.40;99.90;;;;;;4171960;28;20007;-86
2021/01/03 09:38:32;;;;;;;0.85;0.85;;;1.40;99.90;;;;;;4158987;28;20053;-84
2021/01/03 09:40:38;;;;;;;1.23;1.17;;;1.40;99.90;;;;;;4176574;28;20056;-83
2021/01/03 09:42:52;;;;;;;0.88;0.88;;;1.40;99.90;;;;;;4161648;28;20053;-84
2021/01/03 09:45:22;;;;;;;0.60;0.60;;;1.40;99.90;;;;;;4178453;28;20421;-87
2021/01/03 09:47:38;;;;;;;2.30;1.10;;;1.40;99.90;;;;;;4164044;28;20057;-88
2021/01/03 09:49:51;;;;;;;1.10;1.10;;;1.40;99.90;;;;;;4163128;28;20576;-88
2021/01/03 09:52:11;;;;;;;0.98;0.85;;;1.40;99.90;;;;;;4179754;28;20049;-87
2021/01/03 09:54:16;;;;;;;1.52;1.35;;;1.40;99.90;;;;;;4195769;28;20048;-92
2021/01/03 09:56:31;;;;;;;1.33;1.08;;;1.40;99.90;;;;;;4179316;28;20053;-91
2021/01/03 09:58:34;;;;;;;0.30;0.30;;;1.40;99.90;;;;;;4165210;28;20076;-91
2021/01/03 10:00:44;;;;;;;0.60;0.60;;;1.40;99.90;;;;;;4158453;28;20521;-88
2021/01/03 10:02:45;;;;;;;0.43;0.43;;;1.40;99.90;;;;;;4197057;28;20160;-94
2021/01/03 10:04:47;;;;;;;1.00;0.80;;;1.40;99.90;;;;;;4180180;28;20041;-92
2021/01/03 10:07:09;;;;;;;0.85;0.63;;;1.40;99.90;;;;;;4147849;28;20080;-93
2021/01/03 10:09:15;;;;;;;1.73;1.63;;;1.40;99.90;;;;;;4179464;28;20048;-93
2021/01/03 10:11:30;;;;;;;0.63;0.63;;;1.40;99.90;;;;;;4173560;28;20049;-93
2021/01/03 10:13:31;;;;;;;1.25;0.95;;;1.40;99.90;;;;;;4176217;28;20464;-86
2021/01/03 10:15:33;;;;;;;0.70;0.43;;;1.40;99.90;;;;;;4146331;28;20085;-93
2021/01/03 10:17:34;;;;;;;1.17;1.15;;;1.40;99.90;;;;;;4196025;28;20334;-92
2021/01/03 10:19:36;;;;;;;1.27;1.17;;;1.40;99.90;;;;;;4200925;28;20060;-94
2021/01/03 10:21:39;;;;;;;1.38;1.27;;;1.50;99.90;;;;;;4185138;28;20059;-94
2021/01/03 10:23:40;;;;;;;0.80;0.80;;;1.50;99.90;;;;;;4178538;28;20051;-96
2021/01/03 10:25:42;;;;;;;0.82;0.82;;;1.50;99.90;;;;;;4155630;28;20145;-95
2021/01/03 10:28:10;;;;;;;1.02;1.02;;;1.50;99.90;;;;;;4196159;28;20037;-95
2021/01/03 10:30:13;;;;;;;0.10;0.10;;;1.50;99.90;;;;;;4177532;28;20049;-88
2021/01/03 10:32:14;;;;;;;0.60;0.60;;;1.50;99.90;;;;;;4191265;28;20131;-95
2021/01/03 10:34:19;;;;;;;1.60;1.48;;;1.50;99.90;;;;;;4167753;28;20544;-93
2021/01/03 10:36:21;;;;;;;3.75;1.67;;;1.50;99.80;;;;;;4140643;28;20054;-94
2021/01/03 10:38:22;;;;;;;2.17;2.00;;;1.50;99.80;;;;;;4158739;28;20060;-91
2021/01/03 10:40:25;;;;;;;0.85;0.85;;;1.50;99.80;;;;;;4175333;28;20473;-86
2021/01/03 10:42:27;;;;;;;0.85;0.85;;;1.50;99.70;;;;;;4196094;28;20048;-85
2021/01/03 10:44:28;;;;;;;0.70;0.63;;;1.60;99.90;;;;;;4175557;28;20461;-92
2021/01/03 10:46:30;;;;;;;1.10;1.08;;;1.60;99.80;;;;;;4178084;28;20111;-89
2021/01/03 10:48:32;;;;;;;2.33;0.95;;;1.60;99.60;;;;;;4179072;28;20068;-88
2021/01/03 10:50:52;;;;;;;0.98;0.90;;;1.60;99.40;;;;;;4171688;28;20195;-94
2021/01/03 10:52:54;;;;;;;2.30;0.80;;;1.60;99.30;;;;;;4192322;28;20044;-92
2021/01/03 10:54:55;;;;;;;1.52;1.42;;;1.60;99.40;;;;;;4160756;28;20084;-90
2021/01/03 10:56:57;;;;;;;0.85;0.85;;;1.60;99.40;;;;;;4187612;28;20041;-93
2021/01/03 10:58:58;;;;;;;1.52;1.42;;;1.60;99.30;;;;;;4185088;28;20048;-88
2021/01/03 11:00:59;;;;;;;1.17;1.17;;;1.60;99.40;;;;;;4162417;28;20045;-91
2021/01/03 11:03:03;;;;;;;0.75;0.68;;;1.60;99.30;;;;;;4181300;28;20132;-86
2021/01/03 11:05:06;;;;;;;3.38;1.80;;;1.60;99.10;;;;;;4188481;28;20040;-89
2021/01/03 11:07:09;;;;;;;2.35;1.08;;;1.60;99.30;;;;;;4161303;28;20100;-88